createdAt,value
2023-04-02T00:04:45.018Z,95.79
2023-04-02T00:09:47.332Z,95.34
2023-04-02T00:14:52.327Z,95.80
2023-04-02T00:19:58.332Z,95.87
2023-04-02T00:25:02.775Z,95.89
2023-04-02T00:30:06.518Z,96.11
2023-04-02T00:35:25.582Z,95.76
2023-04-02T00:40:31.851Z,96.94
2023-04-02T00:45:37.013Z,96.77
2023-04-02T00:50:41.199Z,97.54
2023-04-02T00:55:44.042Z,96.79
2023-04-02T01:00:50.763Z,97.23
2023-04-02T01:06:01.691Z,96.89
2023-04-02T01:11:11.740Z,96.83
2023-04-02T01:16:27.420Z,97.96
2023-04-02T01:21:37.177Z,98.25
2023-04-02T01:26:44.825Z,98.62
2023-04-02T01:31:48.066Z,97.98
2023-04-02T01:37:04.603Z,98.68
2023-04-02T01:42:16.243Z,98.42
2023-04-02T01:47:20.488Z,97.58
2023-04-02T01:52:34.474Z,96.63
2023-04-02T01:57:37.711Z,97.54
2023-04-02T02:02:41.308Z,97.92
2023-04-02T02:07:45.831Z,97.81
2023-04-02T02:12:51.498Z,98.36
2023-04-02T02:17:58.414Z,98.16
2023-04-02T02:23:01.928Z,98.68
2023-04-02T02:28:09.871Z,97.53
2023-04-02T02:33:16.557Z,97.95
2023-04-02T02:38:28.417Z,97.80
2023-04-02T02:43:39.904Z,97.94
2023-04-02T02:48:42.844Z,97.30
2023-04-02T02:53:48.737Z,97.54
2023-04-02T02:58:53.735Z,97.56
2023-04-02T03:04:03.333Z,97.71
2023-04-02T03:09:12.702Z,97.16
2023-04-02T03:14:27.197Z,96.99
2023-04-02T03:20:08.931Z,97.04
2023-04-02T03:25:31.139Z,96.21
2023-04-02T03:30:38.324Z,96.99
2023-04-02T03:35:44.686Z,96.28
2023-04-02T03:40:58.268Z,95.72
2023-04-02T03:46:09.848Z,96.70
2023-04-02T03:51:16.889Z,95.87
2023-04-02T03:56:26.701Z,95.70
2023-04-02T04:01:34.610Z,95.19
2023-04-02T04:06:41.509Z,94.64
2023-04-02T04:11:45.853Z,94.86
2023-04-02T04:17:04.560Z,95.26
2023-04-02T04:22:15.143Z,94.99
2023-04-02T04:27:23.918Z,94.86
2023-04-02T04:32:33.947Z,93.75
2023-04-02T04:37:49.735Z,94.05
2023-04-02T04:42:57.098Z,93.78
2023-04-02T04:48:01.740Z,92.87
2023-04-02T04:53:06.550Z,92.21
2023-04-02T04:58:19.668Z,92.67
2023-04-02T05:03:32.346Z,92.60
2023-04-02T05:08:37.819Z,91.58
2023-04-02T05:13:53.437Z,92.03
2023-04-02T05:19:07.918Z,91.77
2023-04-02T05:24:32.109Z,92.00
2023-04-02T05:29:37.732Z,91.09
2023-04-02T05:34:42.439Z,91.22
2023-04-02T05:39:46.321Z,90.40
2023-04-02T05:45:09.773Z,89.63
2023-04-02T05:50:18.305Z,89.32
2023-04-02T05:55:34.657Z,88.42
2023-04-02T06:00:47.794Z,88.32
2023-04-02T06:05:58.239Z,88.04
2023-04-02T06:11:05.033Z,87.86
2023-04-02T06:16:10.656Z,85.99
2023-04-02T06:21:15.549Z,86.18
2023-04-02T06:26:37.223Z,86.24
2023-04-02T06:31:42.696Z,85.64
2023-04-02T06:36:48.737Z,85.64
2023-04-02T06:42:10.359Z,83.69
2023-04-02T06:47:47.284Z,84.10
2023-04-02T06:53:09.810Z,83.09
2023-04-02T06:58:15.550Z,82.57
2023-04-02T07:03:23.678Z,80.71
2023-04-02T07:08:27.874Z,82.60
2023-04-02T07:13:30.295Z,80.78
2023-04-02T07:18:33.838Z,80.35
2023-04-02T07:23:39.771Z,81.95
2023-04-02T07:28:42.130Z,81.05
2023-04-02T07:33:45.203Z,81.52
2023-04-02T07:38:47.811Z,81.87
2023-04-02T07:43:50.678Z,80.35
2023-04-02T07:48:53.087Z,78.44
2023-04-02T07:53:56.307Z,76.76
2023-04-02T07:58:58.817Z,76.89
2023-04-02T08:04:01.842Z,76.27
2023-04-02T08:09:04.311Z,76.01
2023-04-02T08:14:06.951Z,75.69
2023-04-02T08:19:09.358Z,76.47
2023-04-02T08:24:11.863Z,76.56
2023-04-02T08:29:14.237Z,77.41
2023-04-02T08:34:16.697Z,76.67
2023-04-02T08:39:19.160Z,76.36
2023-04-02T08:44:36.770Z,77.41
2023-04-02T08:49:42.163Z,76.62
2023-04-02T08:54:44.643Z,76.75
2023-04-02T08:59:48.087Z,76.58
2023-04-02T09:04:51.139Z,77.17
2023-04-02T09:09:53.560Z,77.11
2023-04-02T09:15:11.363Z,77.10
2023-04-02T09:20:13.700Z,76.47
2023-04-02T09:25:21.066Z,76.53
2023-04-02T09:30:32.475Z,76.81
2023-04-02T09:35:54.858Z,76.48
2023-04-02T09:41:07.580Z,76.61
2023-04-02T09:46:13.044Z,76.15
2023-04-02T09:51:25.690Z,76.14
2023-04-02T09:56:28.538Z,76.08
2023-04-02T10:01:35.657Z,75.16
2023-04-02T10:06:48.812Z,74.67
2023-04-02T10:11:51.859Z,73.34
2023-04-02T10:16:56.907Z,74.61
2023-04-02T10:22:00.907Z,73.29
2023-04-02T10:27:18.595Z,71.39
2023-04-02T10:32:32.592Z,71.01
2023-04-02T10:37:47.253Z,70.48
2023-04-02T10:43:08.304Z,70.43
2023-04-02T10:48:28.773Z,66.26
2023-04-02T10:53:41.004Z,67.26
2023-04-02T10:58:52.392Z,66.15
2023-04-02T11:03:58.822Z,66.61
2023-04-02T11:09:05.014Z,64.62
2023-04-02T11:14:24.417Z,65.63
2023-04-02T11:19:33.204Z,64.77
2023-04-02T11:24:37.538Z,66.35
2023-04-02T11:29:58.360Z,67.64
2023-04-02T11:35:06.370Z,67.14
2023-04-02T11:40:14.201Z,67.82
2023-04-02T11:45:29.229Z,67.04
2023-04-02T11:50:36.141Z,67.16
2023-04-02T11:55:41.540Z,67.71
2023-04-02T12:01:02.431Z,66.89
2023-04-02T12:06:10.900Z,66.92
2023-04-02T12:11:13.711Z,65.66
2023-04-02T12:16:17.044Z,65.04
2023-04-02T12:21:20.934Z,65.53
2023-04-02T12:26:32.179Z,65.24
2023-04-02T12:31:35.020Z,65.20
2023-04-02T12:36:37.506Z,65.83
2023-04-02T13:12:32.640Z,66.38
2023-04-02T13:17:48.858Z,66.09
2023-04-02T13:22:51.433Z,66.29
2023-04-02T13:27:54.733Z,66.24
2023-04-02T13:32:57.401Z,65.61
2023-04-02T13:38:02.953Z,65.29
2023-04-02T13:43:06.678Z,64.74
2023-04-02T13:48:14.603Z,64.62
2023-04-02T13:53:31.365Z,63.80
2023-04-02T13:58:34.648Z,64.07
2023-04-02T14:03:37.935Z,63.69
2023-04-02T14:09:10.119Z,63.79
2023-04-02T14:14:24.975Z,63.32
2023-04-02T14:19:57.612Z,63.23
2023-04-02T14:25:11.357Z,63.42
2023-04-02T14:30:31.134Z,63.07
2023-04-02T14:35:33.810Z,63.15
2023-04-02T14:40:57.247Z,62.83
2023-04-02T14:46:08.215Z,63.63
2023-04-02T14:51:37.427Z,63.75
2023-04-02T14:56:47.490Z,63.93
2023-04-02T15:01:59.925Z,63.74
2023-04-02T15:07:14.075Z,63.85
2023-04-02T15:12:23.945Z,64.17
2023-04-02T15:17:26.911Z,64.50
2023-04-02T15:22:42.756Z,65.08
2023-04-02T15:28:19.753Z,65.09
2023-04-02T15:33:37.655Z,65.43
2023-04-02T15:38:44.921Z,66.27
2023-04-02T15:44:08.147Z,66.55
2023-04-02T15:49:32.455Z,67.20
2023-04-02T15:54:38.017Z,68.19
2023-04-02T15:59:49.565Z,69.14
2023-04-02T16:05:01.167Z,69.83
2023-04-02T16:10:15.690Z,70.73
2023-04-02T16:15:34.647Z,71.60
2023-04-02T16:20:43.085Z,73.11
2023-04-02T16:25:57.485Z,74.19
2023-04-02T16:31:03.732Z,74.69
2023-04-02T16:36:46.897Z,75.15
2023-04-02T16:41:58.551Z,75.96
2023-04-02T16:47:01.302Z,76.39
2023-04-02T16:52:10.354Z,77.70
2023-04-02T16:57:25.095Z,77.98
2023-04-02T17:02:40.039Z,77.97
2023-04-02T17:08:09.961Z,78.08
2023-04-02T17:13:21.321Z,78.11
2023-04-02T17:18:26.943Z,77.93
2023-04-02T17:23:32.187Z,78.71
2023-04-02T17:28:37.121Z,78.83
2023-04-02T17:33:39.901Z,78.49
2023-04-02T17:38:59.716Z,78.62
2023-04-02T17:44:31.012Z,78.72
2023-04-02T17:49:48.642Z,78.65
2023-04-02T17:55:18.674Z,78.08
2023-04-02T18:00:36.067Z,78.96
2023-04-02T18:05:50.899Z,78.61
2023-04-02T18:11:06.150Z,78.78
2023-04-02T18:16:32.427Z,79.11
2023-04-02T18:21:35.043Z,78.49
2023-04-02T18:26:47.727Z,78.62
2023-04-02T18:32:17.965Z,78.18
2023-04-02T18:37:46.954Z,77.61
2023-04-02T18:43:23.215Z,77.15
2023-04-02T18:48:56.896Z,77.34
2023-04-02T18:54:18.887Z,77.60
2023-04-02T18:59:40.081Z,77.60
2023-04-02T19:04:59.504Z,77.68
2023-04-02T19:10:13.931Z,77.88
2023-04-02T19:15:19.427Z,78.32
2023-04-02T19:20:36.766Z,78.53
2023-04-02T19:25:39.615Z,78.85
2023-04-02T19:31:00.737Z,79.27
2023-04-02T19:36:22.580Z,79.61
2023-04-02T19:41:40.407Z,79.58
2023-04-02T19:46:43.888Z,80.05
2023-04-02T19:51:46.741Z,79.87
2023-04-02T19:56:49.486Z,80.09
2023-04-02T20:01:52.190Z,80.07
2023-04-02T20:06:55.064Z,80.26
2023-04-02T20:11:59.626Z,80.31
2023-04-02T20:17:05.099Z,80.99
2023-04-02T20:22:07.974Z,80.54
2023-04-02T20:27:10.624Z,81.21
2023-04-02T20:32:13.243Z,81.44
2023-04-02T20:37:15.955Z,81.70
2023-04-02T20:42:18.684Z,81.58
2023-04-02T20:47:21.578Z,81.96
2023-04-02T20:52:24.420Z,82.01
2023-04-02T20:57:29.673Z,82.37
2023-04-02T21:02:32.423Z,82.84
2023-04-02T21:07:35.092Z,82.63
2023-04-02T21:12:37.723Z,82.57
2023-04-02T21:17:40.988Z,82.98
2023-04-02T21:22:43.750Z,82.86
2023-04-02T21:27:46.414Z,83.18
2023-04-02T21:32:49.127Z,83.43
2023-04-02T21:37:52.020Z,83.63
2023-04-02T21:42:55.578Z,84.93
2023-04-02T21:47:58.433Z,85.21
2023-04-02T21:53:01.720Z,85.50
2023-04-02T21:58:04.308Z,86.07
2023-04-02T22:03:07.197Z,85.99
2023-04-02T22:08:10.782Z,86.31
2023-04-02T22:13:13.384Z,86.46
2023-04-02T22:18:16.384Z,86.40
2023-04-02T22:23:19.599Z,87.11
2023-04-02T22:28:23.214Z,87.55
2023-04-02T22:33:25.849Z,88.06
2023-04-02T22:38:28.641Z,88.48
2023-04-02T22:43:31.796Z,89.32
2023-04-02T22:48:35.192Z,89.25
2023-04-02T22:53:38.769Z,89.64
2023-04-02T22:58:42.021Z,90.10
2023-04-02T23:03:45.828Z,90.33
2023-04-02T23:08:48.568Z,90.32
2023-04-02T23:13:53.424Z,91.38
2023-04-02T23:18:56.982Z,90.91
2023-04-02T23:23:59.932Z,90.95
2023-04-02T23:29:02.837Z,91.11
2023-04-02T23:34:05.586Z,91.72
2023-04-02T23:39:12.437Z,91.76
2023-04-02T23:44:15.652Z,92.12
2023-04-02T23:49:19.072Z,92.38
2023-04-02T23:54:22.331Z,92.39
2023-04-02T23:59:24.976Z,92.54
